»·PEaware :: UAL837 KSFO-RJAA

UAL837 :: KSFO-RJAA

FLIGHT INFORMATION

Flight Status: Arrived
Operator:
United Airlines
More flights by this operator :: More flights under this callsign
Pilot: Colin A. (19898)
Aircraft: BOEING 747-400 (WINGLETS)
(B744)
More flights by this aircraft type
Origin: KSFO San Francisco Intl
United States
Destination: RJAA New Tokyo Intl (Narita)
Japan
More flights between these airports :: More routes between these airports
Route: +MOLEN8 ENI FOT KYLLE FASEL 49N140W/N0477F340 51N150W 53N160W 55N170W 56N180E/N0491F360 NATES R220 NYMPH/K0904F360 R220 NUZAN/N0491F370 R220 NOGAL/N0492F380 R220 NANAC Y810 KETAR Y811 MELON ELGAR
File this flight plan on PilotEdge
Remarks:
Altitude:
(Current/Filed)
32,000ft
Speed:
(Current/Filed)
481kts
Departed: 25-Feb-19 10:20 PM
Arrived: 26-Feb-19 12:38 AM
Distance/Time
Traveled:
4440nm/2:17
Distance/Time
To Go:
Arrived

Flight Plot

Page will automatically refresh every two minutes.

Flight plan parsing failed; only flown route is shown


Map Options




Map Legend


Flown Route
Filed Route
Departure Airport
Arrival Airport
Navaid (VOR, NDB)
Fix

Horizontal Profiles

Position Reports

Time Latitude Longitude Heading Altitude Ground
Speed
25-Feb-19 22:04 37.621119 -122.388403 208 26ft 0kts
25-Feb-19 22:05 37.621119 -122.388403 208 26ft 0kts
25-Feb-19 22:06 37.621119 -122.388403 208 26ft 0kts
25-Feb-19 22:07 37.621119 -122.388403 208 26ft 0kts
25-Feb-19 22:08 37.621119 -122.388403 208 26ft 0kts
25-Feb-19 22:09 37.621119 -122.388403 208 26ft 0kts
25-Feb-19 22:10 37.621296 -122.388283 208 26ft 0kts
25-Feb-19 22:11 37.621848 -122.387904 225 26ft 1kts
25-Feb-19 22:12 37.621871 -122.387296 297 26ft 2kts
25-Feb-19 22:13 37.621847 -122.387238 297 26ft 0kts
25-Feb-19 22:14 37.621847 -122.387239 297 26ft 0kts
25-Feb-19 22:15 37.622734 -122.389356 298 26ft 15kts
25-Feb-19 22:16 37.624037 -122.390773 310 26ft 7kts
25-Feb-19 22:17 37.625261 -122.393413 329 26ft 0kts
25-Feb-19 22:18 37.626010 -122.392636 101 26ft 14kts
25-Feb-19 22:19 37.612418 -122.359317 120 567ft 175kts
25-Feb-19 22:20 37.593140 -122.293405 119 2132ft 208kts
25-Feb-19 22:21 37.555126 -122.250041 198 3513ft 216kts
25-Feb-19 22:22 37.533678 -122.320437 265 6748ft 211kts
25-Feb-19 22:23 37.519031 -122.389404 247 9104ft 220kts
25-Feb-19 22:24 37.495627 -122.467098 247 11109ft 271kts
25-Feb-19 22:25 37.511066 -122.568414 308 12151ft 358kts
25-Feb-19 22:26 37.578602 -122.662770 321 13445ft 374kts
25-Feb-19 22:27 37.680905 -122.708101 336 15460ft 400kts
25-Feb-19 22:28 37.789959 -122.745727 336 17452ft 412kts
25-Feb-19 22:29 37.869702 -122.840612 299 19445ft 397kts
25-Feb-19 22:30 37.931111 -122.959471 298 21453ft 408kts
25-Feb-19 22:31 38.002442 -123.073254 323 23439ft 431kts
25-Feb-19 22:32 38.122294 -123.111369 346 25374ft 457kts
25-Feb-19 22:33 38.249900 -123.131441 344 26876ft 466kts
25-Feb-19 22:34 38.379253 -123.154003 344 28279ft 474kts
25-Feb-19 22:35 38.511929 -123.177446 343 29284ft 488kts
25-Feb-19 22:36 38.644498 -123.201031 343 30264ft 496kts
25-Feb-19 22:37 38.774285 -123.224153 343 31210ft 498kts
25-Feb-19 22:38 38.911494 -123.248774 343 31912ft 497kts
25-Feb-19 22:39 39.047843 -123.275745 335 31911ft 487kts
25-Feb-19 22:40 39.170936 -123.341444 325 31909ft 473kts
25-Feb-19 22:41 39.290335 -123.412101 326 31910ft 475kts
25-Feb-19 22:42 39.411000 -123.482578 326 31910ft 475kts
25-Feb-19 22:43 39.531493 -123.552980 326 31911ft 474kts
25-Feb-19 22:44 39.651546 -123.623570 325 31913ft 475kts
25-Feb-19 22:45 39.772005 -123.694692 325 31914ft 475kts
25-Feb-19 22:46 39.892214 -123.765946 325 31916ft 475kts
25-Feb-19 22:47 40.012820 -123.837704 325 31920ft 475kts
25-Feb-19 22:49 40.233767 -123.969890 325 31921ft 475kts
25-Feb-19 22:50 40.711532 -124.261708 321 31931ft 470kts
25-Feb-19 22:51 41.143555 -124.631377 317 31933ft 462kts
25-Feb-19 22:52 41.575104 -124.997392 316 31942ft 460kts
25-Feb-19 22:53 42.004358 -125.368786 315 31946ft 456kts
25-Feb-19 22:54 42.430396 -125.743448 315 31945ft 457kts
25-Feb-19 22:55 42.854537 -126.122640 315 31966ft 458kts
25-Feb-19 22:56 43.630692 -126.892212 302 31970ft 435kts
25-Feb-19 22:57 44.314363 -127.902402 305 32016ft 446kts
25-Feb-19 22:58 45.015276 -128.946766 309 32057ft 466kts
25-Feb-19 22:59 45.721939 -130.039286 311 32056ft 479kts
25-Feb-19 23:00 46.400286 -131.130644 313 32063ft 472kts
25-Feb-19 23:01 47.079077 -132.308833 303 32114ft 494kts
25-Feb-19 23:02 47.488029 -133.802584 299 32244ft 508kts
25-Feb-19 23:03 47.892193 -135.313197 299 32201ft 500kts
25-Feb-19 23:04 48.278739 -136.836802 298 32198ft 500kts
25-Feb-19 23:05 48.643745 -138.378699 295 32208ft 496kts
25-Feb-19 23:05 48.932986 -139.682477 293 32238ft 503kts
25-Feb-19 23:07 49.369272 -141.512356 293 32215ft 485kts
25-Feb-19 23:08 49.732987 -143.108808 291 32221ft 485kts
25-Feb-19 23:09 50.075965 -144.738647 289 32247ft 485kts
25-Feb-19 23:09 50.345081 -146.119214 288 32319ft 494kts
25-Feb-19 23:11 50.692600 -148.069286 285 32352ft 486kts
25-Feb-19 23:12 50.966278 -149.768929 282 32404ft 491kts
25-Feb-19 23:12 51.293330 -151.163166 287 32368ft 488kts
25-Feb-19 23:13 51.673964 -152.841396 286 32411ft 489kts
25-Feb-19 23:15 52.093436 -154.825460 285 32481ft 512kts
25-Feb-19 23:15 52.376761 -156.289320 282 32352ft 507kts
25-Feb-19 23:16 52.693641 -158.076324 280 32375ft 523kts
25-Feb-19 23:17 52.987358 -159.910979 276 32229ft 531kts
25-Feb-19 23:18 53.419088 -161.732664 282 32142ft 549kts
25-Feb-19 23:19 53.840741 -163.607483 280 32013ft 548kts
25-Feb-19 23:20 54.159382 -165.158466 278 32000ft 549kts
25-Feb-19 23:21 54.526967 -167.116833 278 31961ft 543kts
25-Feb-19 23:22 54.856457 -169.072187 277 31860ft 523kts
25-Feb-19 23:23 55.143491 -171.031907 276 31726ft 507kts
25-Feb-19 23:24 55.390633 -172.990412 275 31740ft 497kts
25-Feb-19 23:25 55.603429 -174.950889 274 31772ft 495kts
25-Feb-19 23:26 55.782639 -176.906844 273 31837ft 507kts
25-Feb-19 23:27 55.929464 -178.863492 273 31800ft 509kts
25-Feb-19 23:28 55.922056 179.201371 250 31732ft 500kts
25-Feb-19 23:29 55.705538 177.309778 255 31438ft 488kts
25-Feb-19 23:30 55.467702 175.453945 254 31346ft 486kts
25-Feb-19 23:31 55.207827 173.668895 253 31100ft 416kts
25-Feb-19 23:32 55.000608 172.369367 252 29134ft 316kts
25-Feb-19 23:33 54.872085 171.792626 229 27524ft 293kts
25-Feb-19 23:34 54.818699 171.687214 230 27161ft 289kts
25-Feb-19 23:35 54.768529 171.574973 232 27514ft 304kts
25-Feb-19 23:36 54.716598 171.452351 234 28311ft 333kts
25-Feb-19 23:37 54.659335 171.314439 233 28837ft 373kts
25-Feb-19 23:38 54.404013 170.713937 233 30861ft 469kts
25-Feb-19 23:39 54.059428 169.926274 233 31345ft 463kts
25-Feb-19 23:40 52.979195 167.064871 248 31507ft 447kts
25-Feb-19 23:41 51.932285 164.342126 242 31309ft 438kts
25-Feb-19 23:42 50.830645 161.876104 243 30820ft 421kts
25-Feb-19 23:43 50.762724 161.619286 240 31401ft 426kts
25-Feb-19 23:44 50.703938 161.456459 239 31401ft 427kts
25-Feb-19 23:45 50.597007 161.231437 234 31405ft 430kts
25-Feb-19 23:46 50.007164 160.049711 234 31419ft 430kts
25-Feb-19 23:47 49.411920 158.908819 233 31416ft 425kts
25-Feb-19 23:48 48.803810 157.792058 232 31467ft 427kts
25-Feb-19 23:49 48.187196 156.705781 232 31508ft 426kts
25-Feb-19 23:50 47.560473 155.645333 231 31607ft 430kts
25-Feb-19 23:51 46.927224 154.614969 231 31679ft 416kts
25-Feb-19 23:52 46.293757 153.622400 231 31757ft 415kts
25-Feb-19 23:53 45.656938 152.660135 230 31898ft 424kts
25-Feb-19 23:54 45.011739 151.718974 230 31866ft 417kts
25-Feb-19 23:55 44.376775 150.823541 230 31849ft 391kts
25-Feb-19 23:56 43.739387 149.953375 229 31961ft 401kts
25-Feb-19 23:57 43.092478 149.097670 228 31991ft 412kts
25-Feb-19 23:58 42.518339 148.359890 228 31981ft 410kts
25-Feb-19 23:59 41.868663 147.548208 228 31905ft 387kts
26-Feb-19 00:00 41.215866 146.755862 227 31970ft 390kts
26-Feb-19 00:01 40.550086 145.970354 226 32070ft 414kts
26-Feb-19 00:02 39.865835 145.185353 226 32033ft 407kts
26-Feb-19 00:03 39.180685 144.420574 226 32057ft 399kts
26-Feb-19 00:04 38.481404 143.660751 225 32163ft 427kts
26-Feb-19 00:05 37.763252 142.900844 225 32117ft 420kts
26-Feb-19 00:06 37.088967 142.205032 225 32105ft 413kts
26-Feb-19 00:07 36.998149 142.112588 225 32095ft 423kts
26-Feb-19 00:08 36.908139 142.021231 225 30802ft 400kts
26-Feb-19 00:09 36.825204 141.937298 225 29003ft 372kts
26-Feb-19 00:10 36.745742 141.857101 225 27199ft 363kts
26-Feb-19 00:11 36.667968 141.778817 225 25402ft 356kts
26-Feb-19 00:12 36.591526 141.702066 225 23598ft 349kts
26-Feb-19 00:13 36.516725 141.627150 225 21799ft 341kts
26-Feb-19 00:14 36.444076 141.554561 225 20123ft 334kts
26-Feb-19 00:15 36.372023 141.482734 225 18529ft 327kts
26-Feb-19 00:16 36.301651 141.412736 224 16935ft 321kts
26-Feb-19 00:17 36.233273 141.344492 225 16824ft 314kts
26-Feb-19 00:18 36.170192 141.278603 228 19897ft 289kts
26-Feb-19 00:19 36.107816 141.203876 232 21108ft 317kts
26-Feb-19 00:20 36.036378 141.131322 217 19611ft 346kts
26-Feb-19 00:21 35.957992 141.066166 224 16602ft 327kts
26-Feb-19 00:22 35.889559 140.995984 223 13755ft 311kts
26-Feb-19 00:23 35.826814 140.932838 223 11739ft 276kts
26-Feb-19 00:24 35.767857 140.873752 222 9744ft 272kts
26-Feb-19 00:25 35.756571 140.862830 221 9479ft 273kts
26-Feb-19 00:26 35.725424 140.831742 220 8740ft 275kts
26-Feb-19 00:27 35.653653 140.799004 195 7400ft 276kts
26-Feb-19 00:28 35.579619 140.775546 195 6352ft 273kts
26-Feb-19 00:29 35.526810 140.715066 249 5334ft 269kts
26-Feb-19 00:30 35.522770 140.625410 271 4409ft 266kts
26-Feb-19 00:31 35.541294 140.540761 316 4104ft 264kts
26-Feb-19 00:32 35.598114 140.495126 331 3577ft 214kts
26-Feb-19 00:33 35.643063 140.462986 331 2506ft 158kts
26-Feb-19 00:34 35.680351 140.436121 332 1693ft 154kts
26-Feb-19 00:35 35.715471 140.410792 332 910ft 143kts
26-Feb-19 00:36 35.748722 140.386704 332 202ft 134kts
26-Feb-19 00:37 35.765749 140.375261 351 148ft 29kts
26-Feb-19 00:38 35.767602 140.377340 149 148ft 32kts
26-Feb-19 00:39 35.764665 140.379469 152 148ft 17kts
26-Feb-19 00:40 35.764007 140.382317 51 148ft 15kts
26-Feb-19 00:41 35.764294 140.382823 57 148ft 0kts
26-Feb-19 00:42 35.764295 140.382823 57 148ft 0kts
26-Feb-19 00:43 35.764295 140.382823 56 148ft 0kts
26-Feb-19 00:44 35.764295 140.382823 56 148ft 0kts

Navigation Log

Ident Type
Flight plan parsing failed, navigation log unavailable